Time;durP1;ratioP1;P1;durP2;ratioP2;P2;SDS_P1;SDS_P2;PMS_P1;PMS_P2;Temp;Humidity;BMP_temperature;BMP_pressure;BME280_temperature;BME280_humidity;BME280_pressure;Samples;Min_cycle;Max_cycle;Signal;HPM_P1;HPM_P2
2022/08/14 00:00:00;;;;;;;;;9.75;9.75;;;;;24.19;37.78;100290.88;5079155;28;45177;-92
2022/08/14 00:02:26;;;;;;;;;9.75;9.75;;;;;24.17;37.74;100290.91;5094174;27;45307;-93
2022/08/14 00:04:52;;;;;;;;;11.25;11.25;;;;;24.03;37.73;100260.88;5078110;27;46813;-92
2022/08/14 00:07:17;;;;;;;;;10.00;10.00;;;;;23.88;37.85;100239.81;5077985;28;45352;-90
2022/08/14 00:09:43;;;;;;;;;11.50;11.50;;;;;23.97;37.34;100246.75;5078008;28;45354;-90
2022/08/14 00:12:09;;;;;;;;;13.00;12.00;;;;;23.96;37.85;100250.38;5077944;28;45444;-90
2022/08/14 00:14:35;;;;;;;;;12.25;10.50;;;;;24.04;37.71;100251.00;5076425;28;48410;-92
2022/08/14 00:17:01;;;;;;;;;10.25;10.25;;;;;23.86;37.82;100220.22;5076709;28;46013;-91
2022/08/14 00:19:27;;;;;;;;;10.25;9.75;;;;;24.00;37.65;100244.00;5077747;28;45397;-92
2022/08/14 00:21:52;;;;;;;;;12.00;11.75;;;;;24.01;37.57;100243.94;5076148;28;45614;-94
2022/08/14 00:24:19;;;;;;;;;11.50;11.00;;;;;23.97;37.80;100239.56;5077453;28;45817;-92
2022/08/14 00:26:44;;;;;;;;;8.75;8.75;;;;;23.72;38.32;100193.75;5076596;28;45808;-92
2022/08/14 00:29:10;;;;;;;;;9.75;9.75;;;;;23.77;38.23;100209.75;5076593;28;45480;-92
2022/08/14 00:31:35;;;;;;;;;9.25;9.25;;;;;23.80;37.57;100212.34;5077279;28;45561;-91
2022/08/14 00:34:01;;;;;;;;;10.50;10.00;;;;;23.84;37.82;100212.22;5077640;28;45318;-91
2022/08/14 00:36:26;;;;;;;;;10.00;10.00;;;;;23.66;38.31;100176.03;5093070;27;45710;-92
2022/08/14 00:38:51;;;;;;;;;8.00;8.00;;;;;23.94;38.17;100229.81;5076408;28;45392;-90
2022/08/14 00:41:17;;;;;;;;;8.25;8.25;;;;;23.88;38.29;100223.72;5075775;28;56300;-91
2022/08/14 00:43:44;;;;;;;;;9.25;9.00;;;;;23.97;37.80;100227.97;5077079;28;46156;-92
2022/08/14 00:46:09;;;;;;;;;8.75;8.75;;;;;24.04;38.58;100234.91;5076245;28;46081;-86
2022/08/14 00:48:36;;;;;;;;;9.75;8.75;;;;;23.74;38.04;100174.94;5076595;28;45351;-89
2022/08/14 00:51:03;;;;;;;;;7.25;7.25;;;;;23.92;37.62;100206.63;5076245;28;45319;-92
2022/08/14 00:53:28;;;;;;;;;9.50;9.25;;;;;23.98;38.33;100218.97;5076781;28;45676;-90
2022/08/14 00:55:56;;;;;;;;;10.25;10.25;;;;;23.99;38.06;100218.94;5077050;28;45314;-90
2022/08/14 00:58:31;;;;;;;;;9.25;9.25;;;;;23.99;38.05;100210.91;5093262;27;45615;-89
2022/08/14 01:00:59;;;;;;;;;10.00;10.00;;;;;24.09;37.49;100214.19;5092907;27;45258;-94
2022/08/14 01:03:28;;;;;;;;;9.00;9.00;;;;;24.05;37.23;100202.66;5076685;27;47777;-94
2022/08/14 01:05:57;;;;;;;;;9.25;8.00;;;;;24.12;37.58;100200.66;5075196;28;45730;-93
2022/08/14 01:08:27;;;;;;;;;9.00;9.00;;;;;24.10;38.04;100189.09;5076980;27;45360;-90
2022/08/14 01:10:54;;;;;;;;;8.50;7.75;;;;;23.94;37.90;100159.16;5092571;27;45281;-91
2022/08/14 01:13:25;;;;;;;;;8.75;8.75;;;;;24.09;37.69;100187.34;5077065;28;45339;-89
2022/08/14 01:15:54;;;;;;;;;7.50;7.50;;;;;24.08;37.25;100183.75;5076475;27;45902;-90
2022/08/14 01:21:14;;;;;;;;;7.50;7.25;;;;;24.00;37.29;100172.38;5076287;28;45636;-90
2022/08/14 01:23:46;;;;;;;;;9.00;8.00;;;;;23.96;37.67;100167.16;5076445;28;46370;-89
2022/08/14 01:26:13;;;;;;;;;6.25;6.00;;;;;23.92;37.42;100158.28;5091979;27;46058;-89
2022/08/14 01:28:39;;;;;;;;;7.25;6.50;;;;;23.90;37.69;100168.22;5077073;28;45588;-88
2022/08/14 01:31:07;;;;;;;;;7.25;7.25;;;;;23.74;37.87;100135.56;5076325;27;45262;-91
2022/08/14 01:33:40;;;;;;;;;7.75;7.75;;;;;23.94;37.19;100186.00;5074960;28;47972;-90
2022/08/14 01:36:07;;;;;;;;;7.25;7.25;;;;;23.86;37.74;100169.22;5076069;28;45319;-90
2022/08/14 01:38:34;;;;;;;;;8.00;8.00;;;;;23.84;37.29;100173.72;5076451;28;45421;-91
2022/08/14 01:41:05;;;;;;;;;7.25;7.25;;;;;23.80;37.74;100156.00;5076437;28;45271;-91
2022/08/14 01:43:33;;;;;;;;;6.50;6.50;;;;;23.91;37.11;100176.22;5074730;28;46423;-89
2022/08/14 01:45:59;;;;;;;;;8.00;8.00;;;;;23.79;38.02;100156.88;5109071;27;45707;-91
2022/08/14 01:48:27;;;;;;;;;7.75;7.75;;;;;23.88;37.92;100175.41;5092117;27;45341;-91
2022/08/14 01:50:52;;;;;;;;;7.50;7.00;;;;;23.71;37.92;100145.53;5074842;28;45541;-91
2022/08/14 01:53:18;;;;;;;;;9.50;9.50;;;;;23.67;38.19;100144.72;5075890;28;45319;-88
2022/08/14 01:55:43;;;;;;;;;8.00;8.00;;;;;23.74;38.41;100148.09;5075714;28;45437;-88
2022/08/14 01:58:14;;;;;;;;;7.25;7.25;;;;;23.83;37.60;100162.13;5076309;27;45381;-91
2022/08/14 02:00:40;;;;;;;;;8.75;8.75;;;;;23.86;37.89;100170.09;5091930;27;45358;-85
2022/08/14 02:03:06;;;;;;;;;9.00;8.25;;;;;23.55;38.00;100123.59;5075594;28;46403;-90
2022/08/14 02:05:33;;;;;;;;;6.50;6.50;;;;;23.62;38.86;100146.63;5075340;28;45326;-92
2022/08/14 02:07:59;;;;;;;;;7.00;6.25;;;;;23.62;38.70;100152.88;5075908;27;45294;-89
2022/08/14 02:10:27;;;;;;;;;8.25;8.25;;;;;23.42;38.57;100120.34;5076137;28;45557;-89
2022/08/14 02:12:54;;;;;;;;;7.00;7.00;;;;;23.41;38.85;100129.34;5075836;28;45357;-91
2022/08/14 02:15:24;;;;;;;;;8.75;8.00;;;;;23.53;39.14;100145.06;5075650;27;46001;-90
2022/08/14 02:17:49;;;;;;;;;9.00;9.00;;;;;23.44;38.77;100143.50;5074675;28;45366;-88
2022/08/14 02:20:16;;;;;;;;;7.75;7.75;;;;;23.27;38.97;100118.97;5075432;28;45501;-85
2022/08/14 02:22:42;;;;;;;;;7.75;7.75;;;;;23.44;38.97;100146.19;5075962;27;46366;-90
2022/08/14 02:25:09;;;;;;;;;7.25;7.00;;;;;23.42;39.17;100140.00;5075599;28;45391;-89
2022/08/14 02:27:36;;;;;;;;;8.75;8.75;;;;;23.27;39.47;100115.44;5075361;28;45328;-91
2022/08/14 02:30:02;;;;;;;;;7.00;7.00;;;;;23.32;39.66;100124.22;5073968;28;45358;-91
2022/08/14 02:32:33;;;;;;;;;7.75;7.75;;;;;23.25;39.37;100112.78;5073644;28;48503;-86
2022/08/14 02:34:59;;;;;;;;;7.75;7.75;;;;;23.30;40.33;100128.72;5075243;27;45390;-89
2022/08/14 02:37:24;;;;;;;;;9.75;9.00;;;;;23.10;39.98;100100.69;5074933;28;45391;-87
2022/08/14 02:39:50;;;;;;;;;9.00;9.00;;;;;23.23;39.86;100114.63;5090861;27;46080;-90
2022/08/14 02:42:22;;;;;;;;;8.25;8.00;;;;;23.18;39.90;100104.03;5075133;27;45516;-88
2022/08/14 02:44:48;;;;;;;;;8.00;8.00;;;;;23.11;40.24;100101.56;5075120;28;45468;-91
2022/08/14 02:47:14;;;;;;;;;7.00;7.00;;;;;23.06;40.32;100093.66;5090803;27;45577;-93
2022/08/14 02:49:40;;;;;;;;;8.00;7.00;;;;;22.83;40.36;100050.47;5075338;27;45426;-88
2022/08/14 02:52:06;;;;;;;;;8.75;8.75;;;;;23.07;40.29;100079.31;5074618;28;45341;-89
2022/08/14 02:54:33;;;;;;;;;9.00;8.00;;;;;23.03;40.39;100077.63;5090989;27;45860;-93
2022/08/14 02:56:59;;;;;;;;;9.00;9.00;;;;;23.06;40.30;100095.44;5075399;28;45332;-91
2022/08/14 02:59:31;;;;;;;;;9.00;8.00;;;;;23.08;40.07;100107.88;5091124;27;45566;-88
2022/08/14 03:01:56;;;;;;;;;8.25;8.25;;;;;23.03;40.08;100093.72;5075112;27;46569;-91
2022/08/14 03:04:22;;;;;;;;;7.25;7.25;;;;;22.96;40.34;100092.13;5074968;28;45422;-90
2022/08/14 03:06:49;;;;;;;;;7.25;6.25;;;;;22.81;40.45;100063.91;5090388;27;45287;-90
2022/08/14 03:09:15;;;;;;;;;9.75;8.00;;;;;23.05;40.45;100102.59;5074797;28;45600;-91
2022/08/14 03:11:43;;;;;;;;;10.00;9.00;;;;;23.05;40.86;100110.63;5074524;28;45263;-84
2022/08/14 03:14:10;;;;;;;;;8.25;7.50;;;;;23.14;40.40;100121.09;5074026;28;45393;-90
2022/08/14 03:16:36;;;;;;;;;8.75;7.75;;;;;23.09;40.63;100112.31;5075140;27;45580;-92
2022/08/14 03:19:04;;;;;;;;;6.25;6.25;;;;;23.20;40.38;100122.72;5074972;27;45390;-86
2022/08/14 03:21:30;;;;;;;;;8.00;8.00;;;;;23.15;40.68;100117.53;5074303;28;46424;-90
2022/08/14 03:24:17;;;;;;;;;7.00;7.00;;;;;22.98;40.66;100082.25;5075362;28;45703;-87
2022/08/14 03:26:45;;;;;;;;;8.00;8.00;;;;;22.92;40.45;100069.00;5074532;27;46150;-92
2022/08/14 03:29:18;;;;;;;;;8.25;7.25;;;;;23.01;41.08;100089.34;5074720;28;45493;-90
2022/08/14 03:31:44;;;;;;;;;6.50;6.50;;;;;22.95;40.41;100076.94;5090318;27;46346;-90
2022/08/14 03:34:10;;;;;;;;;8.50;8.00;;;;;23.00;40.91;100088.44;5090425;27;45411;-89
2022/08/14 03:36:38;;;;;;;;;6.50;6.25;;;;;23.05;40.61;100105.25;5074431;28;45693;-89
2022/08/14 03:39:06;;;;;;;;;7.50;7.50;;;;;22.96;40.87;100096.63;5074500;28;45588;-89
2022/08/14 03:41:31;;;;;;;;;7.00;7.00;;;;;23.04;40.99;100110.69;5074322;28;45366;-90
2022/08/14 03:44:00;;;;;;;;;8.00;7.00;;;;;22.96;40.40;100105.53;5074386;28;45467;-89
2022/08/14 03:46:30;;;;;;;;;8.25;7.75;;;;;22.99;40.75;100110.78;5075167;27;45651;-92
2022/08/14 03:48:56;;;;;;;;;6.50;6.50;;;;;23.00;41.15;100111.66;5074362;28;45477;-90
2022/08/14 03:51:27;;;;;;;;;7.25;7.00;;;;;23.00;40.74;100130.44;5073975;28;45559;-88
2022/08/14 03:53:54;;;;;;;;;7.50;7.00;;;;;22.78;41.01;100098.81;5072834;28;45867;-87
2022/08/14 03:56:19;;;;;;;;;8.00;7.00;;;;;22.83;41.21;100109.41;5074433;28;45453;-86
2022/08/14 03:58:49;;;;;;;;;7.00;7.00;;;;;22.94;41.21;100127.91;5073482;28;45375;-91
2022/08/14 04:01:18;;;;;;;;;6.00;6.00;;;;;22.81;40.77;100112.16;5074833;28;45554;-90
2022/08/14 04:03:44;;;;;;;;;7.75;7.25;;;;;23.00;40.50;100144.72;5074928;28;45302;-90
2022/08/14 04:06:10;;;;;;;;;7.00;7.00;;;;;22.84;40.00;100114.72;5073337;28;45322;-90
2022/08/14 04:08:38;;;;;;;;;4.75;4.25;;;;;23.05;39.70;100148.16;5073729;28;45281;-90
2022/08/14 04:11:05;;;;;;;;;7.00;6.00;;;;;23.07;39.39;100162.41;5072954;28;47327;-91
2022/08/14 04:13:34;;;;;;;;;6.50;5.25;;;;;23.12;39.37;100157.81;5074057;28;45410;-87
2022/08/14 04:16:03;;;;;;;;;6.00;6.00;;;;;23.13;39.21;100156.88;5072853;28;45387;-92
2022/08/14 04:18:29;;;;;;;;;5.00;4.50;;;;;23.06;39.40;100149.06;5089945;27;45295;-89
2022/08/14 04:20:56;;;;;;;;;5.50;5.50;;;;;23.14;39.48;100139.88;5072390;28;47157;-91
2022/08/14 04:23:23;;;;;;;;;6.75;6.00;;;;;23.20;39.37;100143.31;5074165;28;45403;-88
2022/08/14 04:25:51;;;;;;;;;5.75;5.00;;;;;23.15;39.37;100130.94;5074118;28;45513;-89
2022/08/14 04:28:17;;;;;;;;;6.00;5.50;;;;;23.18;38.96;100138.00;5077684;28;45622;-90
2022/08/14 04:30:42;;;;;;;;;7.00;7.00;;;;;23.13;38.86;100116.66;5077122;27;54391;-91
2022/08/14 04:33:10;;;;;;;;;7.00;6.75;;;;;23.11;39.00;100102.44;5077270;28;45555;-86
2022/08/14 04:35:37;;;;;;;;;6.00;6.00;;;;;23.04;38.79;100081.19;5077093;27;45335;-90
2022/08/14 04:43:38;;;;;;;;;7.00;7.00;;;;;23.12;38.83;100092.59;5077890;28;45816;-92
2022/08/14 04:46:09;;;;;;;;;5.75;5.75;;;;;23.21;38.84;100097.72;5093372;27;45460;-90
2022/08/14 04:48:35;;;;;;;;;6.75;6.75;;;;;23.21;38.76;100088.78;5076240;28;45498;-90
2022/08/14 04:51:08;;;;;;;;;6.00;6.00;;;;;23.20;38.84;100090.56;5077148;28;46216;-89
2022/08/14 04:53:35;;;;;;;;;5.00;5.00;;;;;23.07;38.67;100073.94;5077115;28;45486;-91
2022/08/14 04:56:00;;;;;;;;;8.00;6.75;;;;;23.10;39.37;100073.88;5077495;28;45370;-90
2022/08/14 04:58:28;;;;;;;;;6.00;6.00;;;;;23.16;39.43;100079.06;5077077;28;45277;-91
2022/08/14 05:00:56;;;;;;;;;7.00;6.00;;;;;23.03;39.12;100055.31;5077652;28;46460;-90
2022/08/14 05:03:25;;;;;;;;;5.75;5.75;;;;;23.16;38.85;100076.38;5077077;28;45386;-91
2022/08/14 05:05:54;;;;;;;;;6.00;6.00;;;;;23.05;38.76;100048.09;5077030;28;45397;-89
2022/08/14 05:08:21;;;;;;;;;6.00;6.00;;;;;23.20;38.71;100073.59;5075868;28;45280;-92
2022/08/14 05:10:53;;;;;;;;;7.00;6.50;;;;;23.11;38.80;100088.16;5092758;27;47104;-92
2022/08/14 05:13:20;;;;;;;;;6.00;6.00;;;;;23.18;39.18;100095.09;5076392;28;46201;-90
2022/08/14 05:15:46;;;;;;;;;5.00;5.00;;;;;23.11;39.00;100088.16;5092851;27;45345;-92
2022/08/14 05:18:14;;;;;;;;;6.50;6.25;;;;;23.13;38.74;100095.22;5075800;28;45433;-92
2022/08/14 05:20:45;;;;;;;;;5.50;5.50;;;;;22.99;39.15;100080.44;5075123;28;47613;-89
2022/08/14 05:23:14;;;;;;;;;8.00;7.00;;;;;23.07;38.86;100115.97;5092382;27;45996;-89
2022/08/14 05:25:40;;;;;;;;;7.00;6.75;;;;;22.93;39.32;100100.25;5077089;28;45438;-91
2022/08/14 05:28:17;;;;;;;;;6.00;6.00;;;;;22.88;39.50;100088.72;5076644;28;45385;-90
2022/08/14 05:30:45;;;;;;;;;6.00;6.00;;;;;22.97;39.18;100115.34;5076435;28;45517;-92
2022/08/14 05:33:15;;;;;;;;;6.75;6.00;;;;;22.89;39.76;100099.44;5076001;28;45927;-89
2022/08/14 05:35:43;;;;;;;;;6.00;6.00;;;;;22.61;40.23;100052.81;5074917;28;45590;-91
2022/08/14 05:38:13;;;;;;;;;6.00;6.00;;;;;22.79;40.07;100078.25;5091964;27;45345;-92
2022/08/14 05:40:45;;;;;;;;;6.00;5.00;;;;;22.85;40.18;100083.44;5075463;28;48398;-86
2022/08/14 05:43:12;;;;;;;;;4.50;4.25;;;;;22.63;40.17;100051.88;5078106;27;45326;-90
2022/08/14 05:45:38;;;;;;;;;7.00;7.00;;;;;22.86;40.15;100099.50;5092492;27;45414;-91
2022/08/14 05:48:04;;;;;;;;;5.75;5.75;;;;;22.77;40.70;100074.75;5076370;28;45420;-90
2022/08/14 05:50:31;;;;;;;;;5.75;5.75;;;;;22.77;40.41;100064.03;5075907;27;46850;-89
2022/08/14 05:52:57;;;;;;;;;5.25;5.25;;;;;22.84;40.38;100076.34;5076213;28;45394;-89
2022/08/14 05:55:23;;;;;;;;;6.00;6.00;;;;;22.73;40.51;100063.22;5091952;27;45418;-89
2022/08/14 05:57:54;;;;;;;;;6.00;6.00;;;;;22.74;40.45;100064.97;5076234;28;45472;-91
2022/08/14 06:00:32;;;;;;;;;6.75;6.75;;;;;22.90;40.70;100094.94;5075981;28;46272;-89
2022/08/14 06:02:59;;;;;;;;;6.50;5.75;;;;;22.90;40.68;100084.22;5074587;28;45516;-89
2022/08/14 06:05:24;;;;;;;;;6.00;5.25;;;;;22.76;40.79;100057.78;5075736;28;45357;-90
2022/08/14 06:07:50;;;;;;;;;5.25;5.25;;;;;22.67;40.76;100041.97;5075975;28;45337;-91
2022/08/14 06:10:15;;;;;;;;;6.25;6.00;;;;;22.76;41.10;100056.88;5076104;28;46158;-91
2022/08/14 06:12:41;;;;;;;;;5.00;5.00;;;;;22.71;40.50;100043.66;5074446;28;45416;-89
2022/08/14 06:15:07;;;;;;;;;5.25;5.25;;;;;22.66;40.63;100029.50;5075496;27;45407;-92
2022/08/14 06:17:47;;;;;;;;;5.00;5.00;;;;;22.72;40.70;100026.66;5075776;28;45437;-89
2022/08/14 06:20:13;;;;;;;;;5.25;5.00;;;;;23.01;41.13;100071.44;5075224;28;45601;-91
2022/08/14 06:22:43;;;;;;;;;7.00;6.00;;;;;22.91;40.70;100046.69;5075733;28;45423;-90
2022/08/14 06:25:10;;;;;;;;;6.00;6.00;;;;;23.09;41.47;100077.47;5074564;28;45460;-90
2022/08/14 06:27:37;;;;;;;;;9.00;8.50;;;;;23.09;41.16;100066.75;5074224;28;45531;-91
2022/08/14 06:30:08;;;;;;;;;7.00;7.00;;;;;23.03;41.42;100063.34;5074118;28;48042;-92
2022/08/14 06:32:34;;;;;;;;;5.25;5.25;;;;;23.06;41.21;100074.00;5075488;27;46095;-89
2022/08/14 06:35:01;;;;;;;;;5.00;5.00;;;;;23.20;40.75;100087.00;5090816;27;45395;-88
2022/08/14 06:37:26;;;;;;;;;4.75;4.75;;;;;23.25;40.66;100079.72;5075383;28;45508;-92
2022/08/14 06:39:52;;;;;;;;;6.00;6.00;;;;;23.21;39.92;100060.19;5075300;28;45987;-90
2022/08/14 06:42:17;;;;;;;;;5.75;5.50;;;;;23.32;40.53;100065.22;5075464;28;45307;-91
2022/08/14 06:44:43;;;;;;;;;6.00;6.00;;;;;22.99;40.28;100000.91;5075761;28;45416;-93
2022/08/14 06:47:09;;;;;;;;;7.50;7.50;;;;;23.53;39.84;100094.09;5075524;28;45444;-88
2022/08/14 06:49:36;;;;;;;;;7.00;7.00;;;;;23.47;39.55;100077.31;5074293;28;46456;-87
2022/08/14 06:52:02;;;;;;;;;7.50;6.75;;;;;23.51;39.89;100062.91;5074855;28;45333;-91
2022/08/14 06:54:27;;;;;;;;;7.75;7.25;;;;;23.61;38.78;100083.16;5074352;28;45492;-92
2022/08/14 06:56:52;;;;;;;;;6.50;5.50;;;;;23.64;39.45;100081.31;5075457;27;45639;-92
2022/08/14 06:59:18;;;;;;;;;6.50;6.00;;;;;23.57;38.59;100074.31;5074958;27;46185;-86
2022/08/14 07:07:10;;;;;;;;;8.00;8.00;;;;;23.84;38.49;100106.63;5074729;28;45477;-92
2022/08/14 07:09:36;;;;;;;;;6.50;6.50;;;;;23.94;38.39;100111.72;5073404;28;47983;-90
2022/08/14 07:12:01;;;;;;;;;5.75;5.75;;;;;24.09;38.53;100117.53;5073709;28;45720;-91
2022/08/14 07:14:27;;;;;;;;;7.50;6.75;;;;;23.81;38.41;100045.03;5090521;27;45493;-89
2022/08/14 07:16:52;;;;;;;;;6.00;6.00;;;;;24.10;37.90;100085.25;5075082;28;45311;-92
2022/08/14 07:19:18;;;;;;;;;7.25;7.25;;;;;24.19;37.50;100093.03;5074860;28;46091;-92
2022/08/14 07:21:43;;;;;;;;;7.25;7.00;;;;;24.26;37.87;100093.69;5074397;28;45291;-88
2022/08/14 07:24:08;;;;;;;;;7.00;7.00;;;;;24.25;37.96;100078.53;5074802;28;45321;-89
2022/08/14 07:26:34;;;;;;;;;6.00;5.75;;;;;24.28;37.28;100062.28;5090828;27;45288;-88
2022/08/14 07:28:59;;;;;;;;;7.00;7.00;;;;;24.36;37.64;100070.16;5073757;28;47156;-90
2022/08/14 07:31:24;;;;;;;;;6.50;6.25;;;;;24.56;37.42;100099.03;5073312;28;45493;-92
2022/08/14 07:33:50;;;;;;;;;7.50;7.00;;;;;24.42;36.75;100069.94;5074760;28;45375;-87
2022/08/14 07:36:17;;;;;;;;;6.50;6.00;;;;;24.51;36.49;100087.56;5073039;28;45345;-91
2022/08/14 07:38:42;;;;;;;;;7.00;6.50;;;;;24.62;37.00;100107.75;5074377;28;46384;-89
2022/08/14 07:41:10;;;;;;;;;6.75;6.75;;;;;24.68;37.05;100118.31;5074593;28;45725;-92
2022/08/14 07:43:36;;;;;;;;;7.00;7.00;;;;;24.69;36.85;100106.63;5074714;28;45381;-90
2022/08/14 07:46:04;;;;;;;;;6.00;6.00;;;;;24.45;37.19;100053.72;5074895;28;45504;-87
2022/08/14 07:48:29;;;;;;;;;9.00;8.50;;;;;24.68;36.63;100088.75;5074308;28;46308;-90
2022/08/14 07:50:54;;;;;;;;;7.50;7.50;;;;;24.60;36.61;100061.25;5073951;27;46027;-91
2022/08/14 07:53:20;;;;;;;;;7.25;7.25;;;;;24.60;37.13;100058.56;5074875;27;45315;-89
2022/08/14 07:55:46;;;;;;;;;9.25;8.50;;;;;24.81;37.87;100086.53;5074833;28;45458;-91
2022/08/14 07:58:12;;;;;;;;;7.00;7.00;;;;;24.90;37.52;100091.59;5074942;28;45543;-90
2022/08/14 08:00:38;;;;;;;;;8.00;8.00;;;;;24.90;37.66;100072.75;5076834;27;45498;-90
2022/08/14 08:03:08;;;;;;;;;8.50;8.00;;;;;25.14;37.96;100097.94;5076914;28;45842;-89
2022/08/14 08:05:35;;;;;;;;;8.50;8.25;;;;;25.25;38.55;100094.88;5093397;27;45519;-88
2022/08/14 08:08:02;;;;;;;;;11.00;10.75;;;;;25.20;38.73;100078.00;5076449;28;48035;-91
2022/08/14 08:10:30;;;;;;;;;9.75;9.00;;;;;25.30;39.07;100098.25;5076505;28;46355;-91
2022/08/14 08:13:14;;;;;;;;;10.00;10.00;;;;;25.34;39.59;100094.53;5077957;27;45520;-89
2022/08/14 08:16:03;;;;;;;;;9.75;9.00;;;;;25.42;39.11;100105.03;5077379;27;45414;-89
2022/08/14 08:18:29;;;;;;;;;12.50;11.75;;;;;25.45;39.10;100123.72;5076801;28;47326;-89
2022/08/14 08:20:55;;;;;;;;;9.50;8.50;;;;;25.43;39.77;100120.22;5093316;27;45378;-92
2022/08/14 08:23:22;;;;;;;;;9.00;9.00;;;;;25.47;39.79;100128.13;5076837;28;45588;-90
2022/08/14 08:25:50;;;;;;;;;9.00;9.00;;;;;25.48;39.70;100108.34;5093915;27;45588;-91
2022/08/14 08:28:16;;;;;;;;;8.00;8.00;;;;;25.64;39.33;100108.66;5093543;27;47548;-86
2022/08/14 08:30:48;;;;;;;;;9.50;9.50;;;;;25.59;40.42;100086.44;5078015;27;45799;-92
2022/08/14 08:33:15;;;;;;;;;8.50;8.50;;;;;25.63;40.20;100080.00;5093643;27;45480;-91
2022/08/14 08:35:42;;;;;;;;;6.75;6.00;;;;;25.81;40.61;100099.97;5077746;27;44828;-90
2022/08/14 08:38:18;;;;;;;;;9.25;9.00;;;;;25.83;40.11;100086.47;5093148;27;46449;-91
2022/08/14 08:40:47;;;;;;;;;7.75;7.75;;;;;25.83;40.26;100064.94;5076125;28;45458;-87
2022/08/14 08:43:16;;;;;;;;;8.50;8.25;;;;;26.03;40.08;100078.47;5077557;28;45584;-89
2022/08/14 08:45:41;;;;;;;;;8.00;7.75;;;;;26.04;40.08;100074.84;5093065;27;45374;-90
2022/08/14 08:48:07;;;;;;;;;7.50;7.00;;;;;26.04;40.29;100056.00;5077208;28;46587;-89
2022/08/14 08:50:35;;;;;;;;;8.00;7.25;;;;;26.38;41.04;100078.88;5077308;28;45333;-91
2022/08/14 08:53:03;;;;;;;;;8.00;8.00;;;;;26.45;40.35;100062.44;5076795;28;45322;-92
2022/08/14 08:55:42;;;;;;;;;8.75;8.50;;;;;26.75;40.51;100073.72;5093479;27;45699;-91
2022/08/14 08:58:11;;;;;;;;;10.75;9.75;;;;;26.88;40.89;100062.41;5077054;27;45423;-91
2022/08/14 09:00:39;;;;;;;;;8.50;8.50;;;;;26.92;40.31;100043.31;5075825;28;46092;-88
2022/08/14 09:03:11;;;;;;;;;10.50;9.50;;;;;27.01;40.15;100053.72;5077329;28;45594;-90
2022/08/14 09:05:49;;;;;;;;;8.25;8.00;;;;;27.10;40.32;100052.47;5076668;27;45441;-90
2022/08/14 09:08:18;;;;;;;;;10.25;8.75;;;;;27.29;39.87;100073.19;5076546;28;45425;-91
2022/08/14 09:10:44;;;;;;;;;7.00;6.00;;;;;27.34;39.45;100065.78;5075604;28;45866;-90
2022/08/14 09:13:11;;;;;;;;;7.50;6.50;;;;;27.49;39.69;100059.72;5076080;28;45327;-85
2022/08/14 09:15:38;;;;;;;;;8.75;8.00;;;;;27.63;39.13;100065.31;5076645;27;45579;-91
2022/08/14 09:18:04;;;;;;;;;7.00;7.00;;;;;27.69;39.17;100062.34;5075477;28;48115;-91
2022/08/14 09:20:30;;;;;;;;;7.50;6.50;;;;;27.71;39.17;100046.09;5092230;27;46038;-88
2022/08/14 09:22:57;;;;;;;;;9.25;8.50;;;;;27.57;39.07;100005.34;5075151;28;45371;-92
2022/08/14 09:25:23;;;;;;;;;7.25;7.00;;;;;27.79;39.22;100045.75;5092141;27;45413;-86
2022/08/14 09:27:48;;;;;;;;;9.00;9.00;;;;;27.83;38.96;100048.19;5076718;28;46707;-89
2022/08/14 09:30:14;;;;;;;;;7.25;7.25;;;;;27.88;39.08;100067.78;5076586;28;45374;-86
2022/08/14 09:33:10;;;;;;;;;7.00;7.00;;;;;27.65;38.79;100014.84;5092453;27;45717;-91
2022/08/14 09:35:38;;;;;;;;;6.00;6.00;;;;;27.98;38.69;100069.09;5066813;28;45390;-91
2022/08/14 09:38:23;;;;;;;;;7.00;7.00;;;;;27.94;38.72;100053.13;5075830;28;46827;-89
2022/08/14 09:41:03;;;;;;;;;7.00;6.00;;;;;28.10;38.69;100061.34;5075118;28;45390;-88
2022/08/14 09:43:39;;;;;;;;;8.00;7.50;;;;;28.22;38.59;100067.00;5092208;27;45276;-91
2022/08/14 09:46:07;;;;;;;;;9.50;9.00;;;;;28.40;38.23;100049.03;5076481;28;45489;-90
2022/08/14 09:48:34;;;;;;;;;7.50;7.00;;;;;28.46;37.50;100021.69;5076201;28;45403;-89
2022/08/14 09:51:00;;;;;;;;;9.25;8.50;;;;;28.47;37.42;100001.84;5076447;28;45882;-91
2022/08/14 09:53:42;;;;;;;;;3.50;3.50;;;;;28.85;37.71;100042.22;5076208;28;45367;-88
2022/08/14 09:56:11;;;;;;;;;7.00;5.25;;;;;28.79;37.02;100019.09;5076180;27;45396;-84
2022/08/14 09:58:46;;;;;;;;;6.50;6.50;;;;;28.96;37.00;100030.88;5075856;27;46563;-89
2022/08/14 10:01:15;;;;;;;;;7.50;7.25;;;;;28.97;36.78;100029.94;5075813;27;45323;-88
2022/08/14 10:03:50;;;;;;;;;7.75;7.50;;;;;28.92;36.70;100013.06;5091465;27;45252;-84
2022/08/14 10:06:18;;;;;;;;;10.00;8.00;;;;;29.17;35.98;100054.13;5075461;28;45282;-89
2022/08/14 10:08:50;;;;;;;;;7.50;7.00;;;;;29.02;36.11;100036.00;5091045;27;47147;-86
2022/08/14 10:11:18;;;;;;;;;7.00;6.00;;;;;28.94;36.07;100021.94;5075596;27;45492;-87
2022/08/14 10:13:45;;;;;;;;;7.00;7.00;;;;;29.15;35.61;100063.25;5091572;27;45393;-86
2022/08/14 10:16:10;;;;;;;;;6.25;6.25;;;;;29.15;36.28;100069.53;5075156;27;45530;-89
2022/08/14 10:18:36;;;;;;;;;9.00;8.00;;;;;29.18;36.39;100076.63;5091292;27;47845;-88
2022/08/14 10:21:03;;;;;;;;;9.00;8.00;;;;;28.98;35.66;100048.78;5075369;28;45350;-84
2022/08/14 10:23:41;;;;;;;;;7.75;7.75;;;;;28.95;36.13;100056.19;5074844;27;45413;-84
2022/08/14 10:26:07;;;;;;;;;7.00;7.00;;;;;29.05;35.99;100073.69;5074172;28;45285;-85
2022/08/14 10:28:42;;;;;;;;;6.00;6.00;;;;;28.92;35.98;100053.63;5075422;28;45594;-85
2022/08/14 10:31:28;;;;;;;;;9.00;7.75;;;;;29.12;36.25;100085.09;5075454;27;45860;-91
2022/08/14 10:34:08;;;;;;;;;8.25;8.00;;;;;28.92;35.83;100053.63;5075638;28;45468;-83
2022/08/14 10:36:42;;;;;;;;;8.00;8.00;;;;;29.05;36.41;100073.69;5075341;28;45528;-82
2022/08/14 10:39:26;;;;;;;;;9.75;9.50;;;;;29.03;36.08;100075.63;5075077;27;46904;-88
2022/08/14 10:42:07;;;;;;;;;6.75;6.75;;;;;29.24;36.09;100092.53;5075120;28;45744;-83
2022/08/14 10:44:44;;;;;;;;;9.75;9.00;;;;;29.15;36.49;100068.66;5075303;28;45418;-91
2022/08/14 10:47:11;;;;;;;;;10.00;9.25;;;;;29.21;36.42;100062.91;5075629;28;45551;-91
2022/08/14 10:49:42;;;;;;;;;8.00;8.00;;;;;29.30;35.95;100074.13;5075003;28;45492;-91
2022/08/14 10:52:18;;;;;;;;;8.25;8.00;;;;;29.44;36.35;100086.06;5074547;28;45397;-84
2022/08/14 10:54:45;;;;;;;;;8.00;8.00;;;;;29.33;35.86;100072.25;5075236;28;45435;-85
2022/08/14 10:57:19;;;;;;;;;8.75;6.75;;;;;29.35;35.79;100071.19;5075344;28;45284;-83
2022/08/14 10:59:54;;;;;;;;;7.50;7.50;;;;;29.40;36.30;100089.88;5073538;28;46313;-86
2022/08/14 11:02:30;;;;;;;;;8.00;7.25;;;;;29.33;35.87;100089.34;5074642;28;45434;-85
2022/08/14 11:05:17;;;;;;;;;10.00;8.25;;;;;29.26;36.17;100094.22;5075094;28;45721;-85
2022/08/14 11:07:42;;;;;;;;;12.25;10.25;;;;;29.24;36.21;100087.13;5074362;28;45360;-91
2022/08/14 11:10:13;;;;;;;;;9.00;8.00;;;;;29.19;36.46;100100.91;5074714;28;46297;-83
2022/08/14 11:12:48;;;;;;;;;9.00;8.00;;;;;29.12;36.37;100083.25;5074543;28;45336;-88
2022/08/14 11:15:21;;;;;;;;;10.50;9.25;;;;;29.16;35.93;100089.34;5074779;27;45442;-90
2022/08/14 11:17:49;;;;;;;;;8.50;8.00;;;;;29.17;36.35;100097.41;5075433;27;45596;-90
2022/08/14 11:20:21;;;;;;;;;10.00;9.25;;;;;29.18;36.03;100093.75;5074681;28;46554;-88
2022/08/14 11:22:51;;;;;;;;;9.00;9.00;;;;;29.05;36.79;100063.75;5074474;28;45429;-88
2022/08/14 11:25:18;;;;;;;;;11.00;10.75;;;;;28.96;36.76;100045.28;5074820;27;45517;-88
2022/08/14 11:27:45;;;;;;;;;13.00;10.75;;;;;29.07;37.24;100065.50;5074556;28;45342;-85
2022/08/14 11:30:15;;;;;;;;;9.25;9.25;;;;;29.12;36.95;100085.09;5074431;27;45368;-91
2022/08/14 11:32:43;;;;;;;;;9.75;9.25;;;;;29.14;37.31;100102.09;5090097;27;45429;-84
2022/08/14 11:35:18;;;;;;;;;9.00;9.00;;;;;29.01;37.88;100100.06;5074199;28;45362;-84
2022/08/14 11:37:52;;;;;;;;;9.75;8.25;;;;;29.00;37.92;100113.66;5074075;28;45290;-86
2022/08/14 11:40:18;;;;;;;;;8.50;8.25;;;;;28.69;38.63;100082.72;5074388;28;45442;-88
2022/08/14 11:42:46;;;;;;;;;9.00;8.00;;;;;28.64;38.79;100094.75;5074281;28;45930;-86